Weather History for KTHA - January, 2013

Change the Weather History Date:

Thursday, January 17, 2013

  Actual Average Record
Temperature  
Mean Temperature 36 °F -  
Max Temperature 39 °F 45 °F 55 °F (2015)
Min Temperature 32 °F 27 °F 23 °F (2014)
Degree Days  
Heating Degree Days 30    
Moisture  
Dew Point 30 °F    
Average Humidity 81    
Maximum Humidity 100    
Minimum Humidity 70    
Precipitation  
Precipitation 0.00 in - - ()
Sea Level Pressure  
Sea Level Pressure 30.07 in    
Wind  
Wind Speed 11 mph (North)    
Max Wind Speed 21 mph    
Max Gust Speed 30 mph    
Visibility 10 miles    
Events      
Averages and records for this station are not official NWS values.
T = Trace of Precipitation, MM = Missing Value Source: NWS Daily Summary

Daily Weather History Graph

Daily Weather History Graph

Search for Another Location

Airport or City:

Trip Planner

Search our weather history database for the weather conditions in past years. The results will help you decide how hot, cold, wet, or windy it might be!

Date:

Astronomy

Jan. 17, 2013 Rise Set
Actual Time 6:52 AM CST 4:58 PM CST
Civil Twilight 6:25 AM CST 5:25 PM CST
Nautical Twilight 5:54 AM CST 5:56 PM CST
Astronomical Twilight 5:23 AM CST 6:27 PM CST
Moon 10:15 AM CST (1/17) 11:31 PM CST (1/17)
Length of Visible Light 11h 00m
Length of Day
10h 05m
Waxing Crescent, 38% of the Moon is Illuminated
Jan 17
Waxing Crescent
Jan 18
First Quarter
Jan 26
Full
Feb 3
Last Quarter
Feb 10
New

Hourly Weather History & Observations

Time (CST) Temp. Windchill Dew Point Humidity Pressure Visibility Wind Dir Wind Speed Gust Speed Precip Events Conditions
12:15 AM 35.6 °F 29.9 °F 35.6 °F 100% 30.06 in 5.0 mi North 6.9 mph - N/A   Overcast
12:35 AM 35.6 °F 28.6 °F 33.8 °F 93% 30.05 in 6.0 mi North 9.2 mph - N/A   Overcast
12:55 AM 35.6 °F 29.2 °F 35.6 °F 100% 30.04 in 8.0 mi NNE 8.1 mph - N/A   Overcast
1:15 AM 35.6 °F 30.7 °F 35.6 °F 100% 30.04 in 10.0 mi NNE 5.8 mph - N/A   Overcast
1:35 AM 35.6 °F 30.7 °F 35.6 °F 100% 30.05 in 10.0 mi NNE 5.8 mph - N/A   Overcast
1:55 AM 35.6 °F 29.2 °F 35.6 °F 100% 30.05 in 10.0 mi NNE 8.1 mph - N/A   Overcast
2:15 AM 35.6 °F 29.9 °F 35.6 °F 100% 30.04 in 10.0 mi NNE 6.9 mph - N/A   Overcast
2:35 AM 35.6 °F 29.9 °F 35.6 °F 100% 30.04 in 10.0 mi NNE 6.9 mph - N/A   Overcast
2:55 AM 35.6 °F 29.2 °F 35.6 °F 100% 30.03 in 10.0 mi North 8.1 mph - N/A   Overcast
3:15 AM 35.6 °F 28.6 °F 33.8 °F 93% 30.03 in 10.0 mi North 9.2 mph - N/A   Overcast
3:35 AM 35.6 °F 28.6 °F 33.8 °F 93% 30.02 in 10.0 mi NNE 9.2 mph - N/A   Overcast
3:55 AM 35.6 °F 27.5 °F 33.8 °F 93% 30.01 in 10.0 mi North 11.5 mph - N/A   Overcast
4:15 AM 35.6 °F 28.6 °F 32.0 °F 87% 30.00 in 10.0 mi NE 9.2 mph - N/A   Overcast
4:35 AM 35.6 °F 28.0 °F 30.2 °F 81% 30.01 in 10.0 mi North 10.4 mph - N/A   Overcast
5:15 AM 35.6 °F 29.9 °F 28.4 °F 75% 30.01 in 10.0 mi NNE 6.9 mph - N/A   Overcast
5:35 AM 35.6 °F 27.1 °F 28.4 °F 75% 30.01 in 10.0 mi NNE 12.7 mph - N/A   Overcast
5:55 AM 35.6 °F 28.6 °F 28.4 °F 75% 30.01 in 10.0 mi NNE 9.2 mph - N/A   Overcast
6:15 AM 33.8 °F 25.8 °F 28.4 °F 81% 30.02 in 8.0 mi NNE 10.4 mph - N/A   Overcast
6:35 AM 33.8 °F 25.8 °F 28.4 °F 81% 30.01 in 6.0 mi North 10.4 mph - N/A   Mostly Cloudy
6:55 AM 33.8 °F 27.0 °F 28.4 °F 81% 30.01 in 10.0 mi NNE 8.1 mph - N/A   Overcast
7:15 AM 33.8 °F 24.8 °F 26.6 °F 75% 29.99 in 10.0 mi NE 12.7 mph - N/A   Mostly Cloudy
7:35 AM 33.8 °F 26.4 °F 26.6 °F 75% 29.98 in 10.0 mi NNE 9.2 mph - N/A   Partly Cloudy
7:55 AM 33.8 °F 24.8 °F 28.4 °F 81% 29.98 in 10.0 mi North 12.7 mph - N/A   Mostly Cloudy
8:15 AM 33.8 °F 23.9 °F 28.4 °F 81% 29.98 in 10.0 mi North 15.0 mph - N/A   Overcast
8:35 AM 33.8 °F 24.3 °F 28.4 °F 81% 29.96 in 10.0 mi North 13.8 mph - N/A   Overcast
8:55 AM 33.8 °F 24.3 °F 28.4 °F 81% 29.97 in 10.0 mi North 13.8 mph - N/A   Overcast
9:15 AM 35.6 °F 27.1 °F 26.6 °F 70% 29.98 in 10.0 mi North 12.7 mph - N/A   Overcast
9:35 AM 35.6 °F 25.9 °F 26.6 °F 70% 29.98 in 10.0 mi North 16.1 mph - N/A   Overcast
9:55 AM 35.6 °F 26.2 °F 26.6 °F 70% 29.99 in 10.0 mi North 15.0 mph - N/A   Overcast
10:15 AM 33.8 °F 23.2 °F 26.6 °F 75% 29.98 in 10.0 mi North 17.3 mph - N/A   Overcast
10:35 AM 35.6 °F 24.8 °F 26.6 °F 70% 29.95 in 10.0 mi North 19.6 mph - N/A   Overcast
10:55 AM 35.6 °F 26.2 °F 28.4 °F 75% 29.95 in 10.0 mi North 15.0 mph - N/A   Overcast
11:15 AM 35.6 °F 26.2 °F 26.6 °F 70% 29.96 in 10.0 mi North 15.0 mph - N/A   Overcast
11:35 AM 35.6 °F 25.9 °F 26.6 °F 70% 29.96 in 10.0 mi North 16.1 mph - N/A   Overcast
11:55 AM 35.6 °F 25.2 °F 28.4 °F 75% 29.93 in 10.0 mi NNW 18.4 mph - N/A   Mostly Cloudy
12:15 PM 33.8 °F 22.8 °F 28.4 °F 81% 29.94 in 9.0 mi NNW 18.4 mph - N/A   Mostly Cloudy
12:55 PM 33.8 °F 22.5 °F 30.2 °F 87% 29.95 in 8.0 mi North 19.6 mph - N/A   Overcast
1:15 PM 33.8 °F 23.9 °F 30.2 °F 87% 29.96 in 10.0 mi North 15.0 mph - N/A   Overcast
1:35 PM 35.6 °F 25.2 °F 30.2 °F 81% 29.96 in 10.0 mi North 18.4 mph - N/A   Scattered Clouds
1:55 PM 35.6 °F 25.5 °F 30.2 °F 81% 29.97 in 10.0 mi North 17.3 mph - N/A   Partly Cloudy
2:15 PM 39.2 °F 29.6 °F 30.2 °F 70% 29.98 in 10.0 mi North 19.6 mph - N/A   Partly Cloudy
2:35 PM 39.2 °F 30.5 °F 30.2 °F 70% 29.99 in 10.0 mi North 16.1 mph - N/A   Clear
2:55 PM 39.2 °F 30.5 °F 30.2 °F 70% 30.01 in 10.0 mi North 16.1 mph - N/A   Clear
3:15 PM 39.2 °F 29.3 °F 30.2 °F 70% 30.03 in 10.0 mi North 20.7 mph - N/A   Clear
3:35 PM 39.2 °F 30.2 °F 30.2 °F 70% 30.07 in 10.0 mi North 17.3 mph - N/A   Clear
3:55 PM 39.2 °F 29.3 °F 30.2 °F 70% 30.09 in 10.0 mi North 20.7 mph - N/A   Partly Cloudy
4:55 PM 39.2 °F 30.2 °F 30.2 °F 70% 30.17 in 10.0 mi North 17.3 mph 29.9 mph N/A   Clear
5:35 PM 37.4 °F 29.3 °F 30.2 °F 75% 30.22 in 10.0 mi North 12.7 mph - N/A   Clear
6:15 PM 37.4 °F 27.8 °F 30.2 °F 75% 30.25 in 10.0 mi NNW 17.3 mph - N/A   Clear
7:55 PM 35.6 °F 28.6 °F 28.4 °F 75% 30.30 in 10.0 mi North 9.2 mph - N/A   Clear
8:15 PM 35.6 °F 29.2 °F 28.4 °F 75% 30.31 in 10.0 mi North 8.1 mph - N/A   Clear
8:35 PM 35.6 °F 29.9 °F 28.4 °F 75% 30.32 in 10.0 mi North 6.9 mph - N/A   Clear
8:55 PM 33.8 °F 29.6 °F 28.4 °F 81% 30.34 in 10.0 mi North 4.6 mph - N/A   Clear
9:15 PM 33.8 °F 28.6 °F 28.4 °F 81% 30.34 in 10.0 mi North 5.8 mph - N/A   Clear
9:35 PM 33.8 °F 27.0 °F 28.4 °F 81% 30.35 in 10.0 mi North 8.1 mph - N/A   Clear
9:55 PM 33.8 °F 28.6 °F 28.4 °F 81% 30.35 in 10.0 mi NNW 5.8 mph - N/A   Clear
11:15 PM 33.8 °F 27.7 °F 30.2 °F 87% 30.38 in 10.0 mi North 6.9 mph - N/A   Clear
11:35 PM 32.0 °F 25.6 °F 28.4 °F 87% 30.39 in 10.0 mi North 6.9 mph - N/A   Clear
11:55 PM 32.0 °F 24.8 °F 28.4 °F 87% 30.39 in 10.0 mi North 8.1 mph - N/A   Clear